Time;durP1;ratioP1;P1;durP2;ratioP2;P2;SDS_P1;SDS_P2;PMS_P1;PMS_P2;Temp;Humidity;BMP_temperature;BMP_pressure;BME280_temperature;BME280_humidity;BME280_pressure;Samples;Min_cycle;Max_cycle;Signal;HPM_P1;HPM_P2
2022/05/01 00:01:45;;;;;;;;;;;;;;;16.40;44.18;102584.78;5001539;28;20377;-70
2022/05/01 00:04:10;;;;;;;;;;;;;;;16.78;43.25;102584.69;5000900;28;19930;-69
2022/05/01 00:06:35;;;;;;;;;;;;;;;16.57;43.80;102583.19;5002680;28;20250;-69
2022/05/01 00:09:01;;;;;;;;;;;;;;;16.63;43.41;102585.03;5004033;28;19932;-68
2022/05/01 00:11:28;;;;;;;;;;;;;;;16.89;42.98;102584.78;5002083;28;19969;-68
2022/05/01 00:13:53;;;;;;;;;;;;;;;16.63;43.35;102576.88;5002661;28;19923;-69
2022/05/01 00:16:18;;;;;;;;;;;;;;;16.54;43.84;102573.63;5003758;28;19929;-69
2022/05/01 00:18:44;;;;;;;;;;;;;;;16.57;43.41;102575.91;5004196;28;19959;-68
2022/05/01 00:21:10;;;;;;;;;;;;;;;16.76;43.36;102578.66;5004013;28;19921;-69
2022/05/01 00:23:36;;;;;;;;;;;;;;;16.78;43.49;102573.81;5004276;28;20459;-69
2022/05/01 00:26:06;;;;;;;;;;;;;;;16.19;44.74;102572.44;5001552;28;20029;-70
2022/05/01 00:28:32;;;;;;;;;;;;;;;16.16;44.78;102564.72;5009590;28;20011;-68
2022/05/01 00:30:57;;;;;;;;;;;;;;;16.42;44.19;102563.69;5003325;28;19980;-68
2022/05/01 00:38:50;;;;;;;;;;;;;;;16.19;44.67;102564.31;5002561;28;19968;-68
2022/05/01 00:41:16;;;;;;;;;;;;;;;16.39;44.32;102564.94;5000760;28;20296;-67
2022/05/01 00:44:10;;;;;;;;;;;;;;;16.24;44.61;102571.75;5003148;28;19932;-68
2022/05/01 00:46:36;;;;;;;;;;;;;;;16.02;45.14;102570.47;4982589;28;19922;-68
2022/05/01 00:49:04;;;;;;;;;;;;;;;16.05;45.00;102580.88;4978664;28;19922;-69
2022/05/01 00:51:30;;;;;;;;;;;;;;;16.20;44.83;102571.38;4979563;28;19928;-69
2022/05/01 00:53:56;;;;;;;;;;;;;;;16.35;44.47;102571.88;4979690;28;20266;-70
2022/05/01 00:56:22;;;;;;;;;;;;;;;15.58;46.32;102574.06;4978406;28;20073;-68
2022/05/01 00:58:48;;;;;;;;;;;;;;;15.90;45.76;102570.31;4980787;28;20390;-67
2022/05/01 01:01:14;;;;;;;;;;;;;;;16.25;44.78;102559.88;4981053;28;20269;-68
2022/05/01 01:03:39;;;;;;;;;;;;;;;16.16;45.13;102562.00;4978604;28;20337;-70
2022/05/01 01:06:05;;;;;;;;;;;;;;;16.63;43.48;102561.44;4981074;28;19957;-68
2022/05/01 01:08:30;;;;;;;;;;;;;;;16.52;43.78;102554.03;4979332;28;19923;-69
2022/05/01 01:10:56;;;;;;;;;;;;;;;16.54;44.10;102567.38;4979181;28;19925;-69
2022/05/01 01:13:26;;;;;;;;;;;;;;;16.33;44.46;102557.69;4980613;28;20429;-68
2022/05/01 01:15:52;;;;;;;;;;;;;;;16.18;44.58;102557.19;4979628;28;19934;-70
2022/05/01 01:18:17;;;;;;;;;;;;;;;16.42;43.98;102558.25;4980328;28;19922;-69
2022/05/01 01:20:42;;;;;;;;;;;;;;;16.11;44.50;102558.31;4983594;28;19941;-69
2022/05/01 01:23:08;;;;;;;;;;;;;;;16.47;44.11;102553.81;4990754;28;20392;-69
2022/05/01 01:25:33;;;;;;;;;;;;;;;16.46;43.89;102560.31;5001580;28;19934;-69
2022/05/01 01:28:02;;;;;;;;;;;;;;;16.33;44.35;102552.25;5000769;28;19922;-68
2022/05/01 01:33:12;;;;;;;;;;;;;;;16.39;44.20;102556.00;5004646;28;19924;-67
2022/05/01 01:35:38;;;;;;;;;;;;;;;15.97;45.43;102563.00;5000859;28;20008;-70
2022/05/01 01:38:03;;;;;;;;;;;;;;;16.11;45.06;102556.44;5001598;28;19917;-69
2022/05/01 01:40:30;;;;;;;;;;;;;;;16.06;44.98;102558.16;5001997;28;19933;-68
2022/05/01 01:42:57;;;;;;;;;;;;;;;16.19;44.99;102550.75;5001884;28;20000;-67
2022/05/01 01:45:24;;;;;;;;;;;;;;;16.20;44.68;102560.53;5003903;28;19922;-69
2022/05/01 01:47:50;;;;;;;;;;;;;;;15.95;45.63;102561.53;5001202;28;19972;-68
2022/05/01 01:50:18;;;;;;;;;;;;;;;16.18;44.81;102557.19;5001047;28;19921;-69
2022/05/01 01:52:46;;;;;;;;;;;;;;;16.12;44.85;102557.22;5002635;28;20021;-68
2022/05/01 01:55:13;;;;;;;;;;;;;;;16.14;44.64;102558.69;5000916;28;19921;-68
2022/05/01 01:57:38;;;;;;;;;;;;;;;16.15;45.07;102557.66;5002343;28;20385;-68
2022/05/01 02:00:04;;;;;;;;;;;;;;;16.21;44.79;102548.63;5000895;28;19910;-68
2022/05/01 02:02:30;;;;;;;;;;;;;;;16.12;44.99;102552.66;5001769;28;19921;-69
2022/05/01 02:04:55;;;;;;;;;;;;;;;16.00;44.97;102559.03;5001482;28;20016;-69
2022/05/01 02:07:20;;;;;;;;;;;;;;;16.20;44.78;102551.53;5002993;28;19975;-69
2022/05/01 02:09:45;;;;;;;;;;;;;;;16.16;45.06;102556.59;5001833;28;19921;-70
2022/05/01 02:12:11;;;;;;;;;;;;;;;16.08;45.00;102554.13;5001544;28;19972;-68
2022/05/01 02:14:36;;;;;;;;;;;;;;;16.03;45.11;102547.72;5000431;28;19953;-67
2022/05/01 02:17:05;;;;;;;;;;;;;;;15.75;45.54;102546.22;5002340;28;19922;-68
2022/05/01 02:19:31;;;;;;;;;;;;;;;15.95;44.91;102543.41;5002053;28;20309;-69
2022/05/01 02:21:56;;;;;;;;;;;;;;;15.91;45.42;102544.88;5000966;28;19943;-69
2022/05/01 02:24:23;;;;;;;;;;;;;;;15.97;45.24;102541.28;5002555;28;19917;-68
2022/05/01 02:26:49;;;;;;;;;;;;;;;15.94;45.30;102535.47;5000839;28;19929;-68
2022/05/01 02:29:14;;;;;;;;;;;;;;;15.79;45.40;102531.19;4999984;28;19921;-68
2022/05/01 02:31:40;;;;;;;;;;;;;;;15.78;45.85;102536.84;5000065;28;19922;-67
2022/05/01 02:34:06;;;;;;;;;;;;;;;15.72;45.88;102537.72;4999906;28;19918;-68
2022/05/01 02:36:31;;;;;;;;;;;;;;;15.51;46.39;102529.88;5003905;28;19944;-69
2022/05/01 02:38:57;;;;;;;;;;;;;;;15.36;46.54;102534.72;5001743;28;20003;-68
2022/05/01 02:41:22;;;;;;;;;;;;;;;15.50;46.03;102530.94;5000044;28;19926;-69
2022/05/01 02:43:48;;;;;;;;;;;;;;;15.33;46.61;102541.41;4999908;28;20381;-69
2022/05/01 02:46:13;;;;;;;;;;;;;;;15.34;46.81;102532.25;4996437;28;19928;-67
2022/05/01 02:48:39;;;;;;;;;;;;;;;15.19;46.97;102528.16;5001369;28;19961;-67
2022/05/01 02:51:04;;;;;;;;;;;;;;;15.47;46.15;102532.19;4999851;28;19913;-68
2022/05/01 02:53:30;;;;;;;;;;;;;;;15.45;46.51;102534.28;4999964;28;19922;-69
2022/05/01 02:55:55;;;;;;;;;;;;;;;15.49;46.33;102527.41;4998810;28;20282;-68
2022/05/01 02:58:20;;;;;;;;;;;;;;;15.35;46.97;102528.47;5001719;28;19929;-70
2022/05/01 03:00:45;;;;;;;;;;;;;;;15.33;46.88;102530.56;4999887;28;19925;-69
2022/05/01 03:03:11;;;;;;;;;;;;;;;15.47;46.64;102524.06;5005028;28;20027;-69
2022/05/01 03:05:36;;;;;;;;;;;;;;;15.35;46.72;102525.75;4997028;28;19926;-69
2022/05/01 03:08:01;;;;;;;;;;;;;;;15.41;46.59;102519.50;4994849;28;20041;-66
2022/05/01 03:10:27;;;;;;;;;;;;;;;15.43;46.73;102522.84;4994579;28;19928;-69
2022/05/01 03:12:52;;;;;;;;;;;;;;;15.43;46.94;102519.31;4994710;28;19921;-69
2022/05/01 03:15:17;;;;;;;;;;;;;;;15.21;47.24;102516.06;4993860;28;20013;-69
2022/05/01 03:23:10;;;;;;;;;;;;;;;15.46;46.73;102518.88;5034059;28;19927;-70
2022/05/01 03:25:35;;;;;;;;;;;;;;;15.34;46.78;102517.88;5033490;28;20020;-68
2022/05/01 03:28:00;;;;;;;;;;;;;;;14.79;48.60;102520.16;5033690;28;19940;-68
2022/05/01 03:30:26;;;;;;;;;;;;;;;13.95;50.99;102523.72;5033559;28;19924;-67
2022/05/01 03:32:52;;;;;;;;;;;;;;;13.77;52.03;102521.59;5033967;28;19909;-70
2022/05/01 03:35:17;;;;;;;;;;;;;;;14.55;49.33;102518.09;5033704;28;20035;-69
2022/05/01 03:37:43;;;;;;;;;;;;;;;14.90;48.46;102515.94;5033453;28;19925;-68
2022/05/01 03:40:12;;;;;;;;;;;;;;;15.14;47.38;102507.13;5033205;28;19953;-68
2022/05/01 03:42:38;;;;;;;;;;;;;;;15.39;46.47;102507.22;5033299;28;19917;-68
2022/05/01 03:45:03;;;;;;;;;;;;;;;15.37;46.87;102510.13;5029349;28;19925;-68
2022/05/01 03:47:28;;;;;;;;;;;;;;;14.70;48.80;102516.00;5013390;28;19948;-69
2022/05/01 03:49:54;;;;;;;;;;;;;;;13.84;51.98;102524.31;5010464;28;19921;-69
2022/05/01 03:52:19;;;;;;;;;;;;;;;13.51;52.41;102515.28;5013549;28;19929;-68
2022/05/01 03:54:44;;;;;;;;;;;;;;;14.12;51.35;102516.84;5013329;28;20079;-68
2022/05/01 03:57:11;;;;;;;;;;;;;;;14.86;49.00;102510.13;5013858;28;20136;-68
2022/05/01 03:59:36;;;;;;;;;;;;;;;15.01;48.53;102509.88;5013280;28;19996;-68
2022/05/01 04:02:01;;;;;;;;;;;;;;;15.12;47.74;102513.78;5002469;28;19999;-67
2022/05/01 04:04:26;;;;;;;;;;;;;;;14.64;49.07;102519.53;4993569;28;19972;-68
2022/05/01 04:06:52;;;;;;;;;;;;;;;14.86;48.31;102523.66;4993363;28;19925;-67
2022/05/01 04:09:17;;;;;;;;;;;;;;;15.16;47.34;102521.28;4993592;28;19914;-68
2022/05/01 04:11:42;;;;;;;;;;;;;;;15.29;46.97;102520.41;4993392;28;20037;-70
2022/05/01 04:14:07;;;;;;;;;;;;;;;15.15;47.58;102521.50;4992477;28;19922;-69
2022/05/01 04:16:32;;;;;;;;;;;;;;;15.27;47.28;102514.38;5006155;28;19921;-69
2022/05/01 04:18:58;;;;;;;;;;;;;;;15.29;47.58;102520.41;5013066;28;19921;-68
2022/05/01 04:21:23;;;;;;;;;;;;;;;15.26;47.42;102529.78;5012806;28;20426;-68
2022/05/01 04:23:49;;;;;;;;;;;;;;;15.16;47.92;102525.84;5013129;28;19921;-69
2022/05/01 04:26:14;;;;;;;;;;;;;;;14.61;49.34;102532.66;5012556;28;19922;-68
2022/05/01 04:29:36;;;;;;;;;;;;;;;14.73;49.20;102541.81;5011461;28;19925;-70
2022/05/01 04:31:25;;;;;;;;;;;;;;;15.16;48.12;102539.41;4993295;28;20023;-70
2022/05/01 04:33:50;;;;;;;;;;;;;;;15.07;48.08;102538.81;4993161;28;19922;-68
2022/05/01 04:36:15;;;;;;;;;;;;;;;14.96;49.00;102534.03;4996713;28;20300;-69
2022/05/01 04:38:40;;;;;;;;;;;;;;;15.19;48.03;102530.84;5012490;28;19925;-67
2022/05/01 04:41:06;;;;;;;;;;;;;;;15.01;48.00;102536.13;5012341;28;19921;-69
2022/05/01 04:43:31;;;;;;;;;;;;;;;14.68;49.11;102539.72;5012525;28;19991;-68
2022/05/01 04:45:57;;;;;;;;;;;;;;;14.91;48.89;102528.44;5001699;28;19922;-68
2022/05/01 04:48:23;;;;;;;;;;;;;;;15.06;48.36;102536.28;4992699;28;19925;-67
2022/05/01 04:50:49;;;;;;;;;;;;;;;15.08;48.20;102540.47;4993182;28;19914;-69
2022/05/01 04:53:15;;;;;;;;;;;;;;;14.71;49.43;102536.63;4992517;28;19918;-69
2022/05/01 04:55:41;;;;;;;;;;;;;;;14.86;48.29;102536.34;4992485;28;20378;-68
2022/05/01 04:58:07;;;;;;;;;;;;;;;14.83;48.87;102548.47;4992552;28;20280;-68
2022/05/01 05:00:32;;;;;;;;;;;;;;;14.71;49.20;102541.19;4991235;28;19921;-68
2022/05/01 05:02:57;;;;;;;;;;;;;;;14.63;49.43;102546.81;4993217;28;19997;-68
2022/05/01 05:05:23;;;;;;;;;;;;;;;14.45;49.80;102546.63;4992518;28;20378;-68
2022/05/01 05:07:49;;;;;;;;;;;;;;;14.02;51.07;102541.59;4992623;28;19928;-68
2022/05/01 05:10:15;;;;;;;;;;;;;;;14.07;50.96;102547.22;4992353;28;19922;-67
2022/05/01 05:12:42;;;;;;;;;;;;;;;14.05;50.56;102543.06;4992437;28;19961;-68
2022/05/01 05:15:09;;;;;;;;;;;;;;;14.60;49.47;102541.84;4992700;28;19914;-68
2022/05/01 05:17:35;;;;;;;;;;;;;;;14.52;49.84;102545.59;4992456;28;19949;-69
2022/05/01 05:20:01;;;;;;;;;;;;;;;14.10;50.41;102554.91;4992260;28;20420;-69
2022/05/01 05:22:27;;;;;;;;;;;;;;;14.79;49.22;102562.63;4992187;28;19964;-68
2022/05/01 05:24:52;;;;;;;;;;;;;;;14.74;49.31;102557.81;4991883;28;20020;-68
2022/05/01 05:27:20;;;;;;;;;;;;;;;14.71;49.13;102563.69;4992811;28;19925;-69
2022/05/01 05:29:45;;;;;;;;;;;;;;;14.80;49.31;102564.31;5003538;28;20373;-69
2022/05/01 05:32:10;;;;;;;;;;;;;;;14.71;49.12;102560.97;5002399;28;20039;-68
2022/05/01 05:34:36;;;;;;;;;;;;;;;14.94;48.58;102561.34;4993028;28;19944;-68
2022/05/01 05:37:01;;;;;;;;;;;;;;;15.00;48.87;102572.38;4991847;28;19928;-69
2022/05/01 05:39:26;;;;;;;;;;;;;;;15.00;48.85;102565.06;4992016;28;19956;-68
2022/05/01 05:41:52;;;;;;;;;;;;;;;15.20;48.52;102573.13;4992365;28;19914;-69
2022/05/01 05:44:17;;;;;;;;;;;;;;;15.16;48.48;102566.47;4992090;28;19976;-69
2022/05/01 05:46:42;;;;;;;;;;;;;;;15.33;48.21;102573.09;4994112;28;19941;-68
2022/05/01 05:49:07;;;;;;;;;;;;;;;15.02;48.85;102571.09;4991883;28;20001;-69
2022/05/01 05:51:32;;;;;;;;;;;;;;;15.25;48.40;102573.34;4992201;28;19919;-69
2022/05/01 05:53:58;;;;;;;;;;;;;;;15.65;47.54;102570.25;5002489;28;19918;-68
2022/05/01 05:56:23;;;;;;;;;;;;;;;15.77;47.12;102579.38;5011269;28;20372;-67
2022/05/01 05:58:49;;;;;;;;;;;;;;;15.64;47.59;102570.50;5011331;28;19975;-68
2022/05/01 06:01:14;;;;;;;;;;;;;;;15.44;48.31;102576.00;5011618;28;19925;-67
2022/05/01 06:03:40;;;;;;;;;;;;;;;15.18;48.98;102572.50;5011774;28;19925;-69
2022/05/01 06:06:06;;;;;;;;;;;;;;;15.61;47.89;102581.75;5011775;28;20365;-66
2022/05/01 06:08:32;;;;;;;;;;;;;;;15.72;47.78;102576.47;5004657;28;19932;-68
2022/05/01 06:10:57;;;;;;;;;;;;;;;16.05;46.68;102584.44;5011552;28;20343;-66
2022/05/01 06:13:22;;;;;;;;;;;;;;;16.13;46.69;102573.31;5011405;28;20466;-67
2022/05/01 06:15:48;;;;;;;;;;;;;;;16.43;45.97;102584.34;5011709;28;20008;-68
2022/05/01 06:18:13;;;;;;;;;;;;;;;16.72;45.36;102580.16;5012185;28;19918;-68
2022/05/01 06:20:39;;;;;;;;;;;;;;;16.81;45.43;102578.78;5011407;28;19956;-69
2022/05/01 06:23:04;;;;;;;;;;;;;;;16.56;44.96;102579.69;5010022;28;19921;-68
2022/05/01 06:25:29;;;;;;;;;;;;;;;16.52;45.37;102574.91;5010600;28;20301;-68
2022/05/01 06:27:55;;;;;;;;;;;;;;;17.15;43.89;102573.63;5010914;28;19949;-67
2022/05/01 06:30:20;;;;;;;;;;;;;;;16.72;44.64;102578.28;5022568;28;19921;-66
2022/05/01 06:32:45;;;;;;;;;;;;;;;16.75;44.48;102577.81;5030714;28;20027;-68
2022/05/01 06:35:11;;;;;;;;;;;;;;;17.15;43.69;102581.78;5029309;28;19932;-67
2022/05/01 06:37:37;;;;;;;;;;;;;;;16.92;43.61;102578.91;5003958;28;19922;-68
2022/05/01 06:40:03;;;;;;;;;;;;;;;16.76;44.56;102579.50;5005099;28;20093;-67
2022/05/01 06:42:29;;;;;;;;;;;;;;;17.43;43.03;102581.25;5002643;28;19914;-67
2022/05/01 06:44:54;;;;;;;;;;;;;;;16.64;44.62;102584.81;5005338;28;20024;-68
2022/05/01 06:47:19;;;;;;;;;;;;;;;17.11;43.81;102577.03;5013862;28;19922;-68
2022/05/01 06:49:44;;;;;;;;;;;;;;;17.97;41.66;102586.59;5014666;28;19921;-68
2022/05/01 06:52:09;;;;;;;;;;;;;;;17.74;42.34;102580.25;5005761;28;19921;-68
2022/05/01 06:54:35;;;;;;;;;;;;;;;17.96;41.10;102582.22;5002940;28;19918;-68
2022/05/01 06:57:00;;;;;;;;;;;;;;;17.97;41.43;102583.03;5005441;28;19944;-69
2022/05/01 06:59:25;;;;;;;;;;;;;;;18.03;41.11;102580.22;5004893;28;20015;-66
2022/05/01 07:01:51;;;;;;;;;;;;;;;17.94;41.65;102580.81;5004027;28;19925;-67
2022/05/01 07:04:16;;;;;;;;;;;;;;;17.69;42.08;102574.69;5004471;28;19922;-69
2022/05/01 07:06:42;;;;;;;;;;;;;;;18.11;41.04;102577.19;5002711;28;19929;-68
2022/05/01 07:09:07;;;;;;;;;;;;;;;17.46;42.20;102572.63;5003089;28;20008;-68
2022/05/01 07:11:32;;;;;;;;;;;;;;;17.96;41.28;102575.97;5002134;28;19956;-69
2022/05/01 07:13:57;;;;;;;;;;;;;;;18.23;40.84;102575.31;4994869;28;19960;-66
2022/05/01 07:16:23;;;;;;;;;;;;;;;18.35;40.29;102572.63;4994430;28;19921;-68
2022/05/01 07:18:48;;;;;;;;;;;;;;;18.58;39.91;102572.66;4997239;28;19925;-68
2022/05/01 07:21:13;;;;;;;;;;;;;;;18.56;40.04;102579.41;5001604;28;19925;-69
2022/05/01 07:23:38;;;;;;;;;;;;;;;18.29;39.94;102573.56;5001370;28;19925;-68
2022/05/01 07:26:04;;;;;;;;;;;;;;;18.48;40.53;102571.59;4998113;28;19922;-68
2022/05/01 07:28:29;;;;;;;;;;;;;;;18.95;38.95;102563.19;4997907;28;20292;-68
2022/05/01 07:30:54;;;;;;;;;;;;;;;18.46;39.25;102571.81;4998774;28;20397;-69
2022/05/01 07:33:20;;;;;;;;;;;;;;;18.50;39.97;102574.91;4996239;28;19944;-68
2022/05/01 07:35:46;;;;;;;;;;;;;;;18.64;39.51;102573.63;4995507;28;20672;-68
2022/05/01 07:38:11;;;;;;;;;;;;;;;18.70;38.70;102576.22;4999381;28;19932;-69
2022/05/01 07:40:36;;;;;;;;;;;;;;;18.25;39.07;102581.34;5006541;28;19922;-69
2022/05/01 07:43:02;;;;;;;;;;;;;;;18.72;38.88;102574.09;4999937;28;20034;-67
2022/05/01 07:45:27;;;;;;;;;;;;;;;17.81;40.71;102581.81;4999492;28;19946;-67
2022/05/01 07:47:53;;;;;;;;;;;;;;;18.29;39.13;102579.84;5000133;28;19925;-67
2022/05/01 07:50:18;;;;;;;;;;;;;;;18.83;38.02;102575.97;4999857;28;19925;-68
2022/05/01 07:52:43;;;;;;;;;;;;;;;18.74;38.22;102582.84;5000443;28;19917;-67
2022/05/01 07:55:09;;;;;;;;;;;;;;;19.08;37.39;102581.19;5006561;28;19933;-68
2022/05/01 07:57:34;;;;;;;;;;;;;;;19.12;37.61;102575.00;5000038;28;19925;-69
2022/05/01 07:59:59;;;;;;;;;;;;;;;19.08;37.69;102575.72;5000339;28;19918;-68
2022/05/01 08:02:32;;;;;;;;;;;;;;;18.78;38.38;102570.44;4999363;28;19930;-67
2022/05/01 08:04:58;;;;;;;;;;;;;;;19.00;37.56;102582.38;4999099;28;20048;-69
2022/05/01 08:07:23;;;;;;;;;;;;;;;19.35;36.79;102576.88;5005337;28;20008;-69
2022/05/01 08:09:48;;;;;;;;;;;;;;;18.06;39.05;102568.88;5005394;28;20045;-67
2022/05/01 08:12:13;;;;;;;;;;;;;;;18.22;38.66;102578.28;4999982;28;19948;-69
2022/05/01 08:14:41;;;;;;;;;;;;;;;18.56;37.99;102571.22;4998765;28;19941;-68
2022/05/01 08:17:06;;;;;;;;;;;;;;;19.08;36.13;102578.47;5000600;28;19977;-68
2022/05/01 08:22:16;;;;;;;;;;;;;;;19.42;35.92;102572.13;4997390;28;19968;-67
2022/05/01 08:24:41;;;;;;;;;;;;;;;19.77;35.62;102569.28;4998033;28;20370;-68
2022/05/01 08:27:07;;;;;;;;;;;;;;;19.80;36.00;102568.78;4996717;28;20054;-67
2022/05/01 08:29:37;;;;;;;;;;;;;;;19.26;36.43;102570.13;4998589;28;19921;-66
2022/05/01 08:32:03;;;;;;;;;;;;;;;19.73;35.89;102571.66;4995655;28;19929;-69
2022/05/01 08:34:28;;;;;;;;;;;;;;;20.44;35.03;102567.50;4999043;28;19921;-68
2022/05/01 08:36:54;;;;;;;;;;;;;;;19.77;34.81;102563.81;4998996;28;19921;-67
2022/05/01 08:39:19;;;;;;;;;;;;;;;20.20;35.15;102568.72;4996849;28;19921;-68
2022/05/01 08:41:44;;;;;;;;;;;;;;;19.49;35.23;102575.56;4996652;28;19925;-69
2022/05/01 08:44:13;;;;;;;;;;;;;;;20.63;33.62;102563.41;4999286;28;19925;-68
2022/05/01 08:46:39;;;;;;;;;;;;;;;20.19;34.30;102572.50;4995093;28;19972;-71
2022/05/01 08:49:06;;;;;;;;;;;;;;;19.30;36.12;102563.94;4997285;28;20293;-69
2022/05/01 08:51:38;;;;;;;;;;;;;;;20.07;34.97;102567.09;4998122;28;19975;-68
2022/05/01 08:54:05;;;;;;;;;;;;;;;20.30;34.52;102556.06;4996772;28;19988;-68
2022/05/01 08:56:34;;;;;;;;;;;;;;;19.75;35.30;102560.50;4996508;28;19921;-68
2022/05/01 08:59:00;;;;;;;;;;;;;;;20.21;34.24;102562.16;4998839;28;19925;-67
2022/05/01 09:01:26;;;;;;;;;;;;;;;19.62;34.88;102568.97;4996093;28;20353;-67
2022/05/01 09:03:52;;;;;;;;;;;;;;;20.56;33.50;102562.78;4998491;28;20020;-68
2022/05/01 09:06:18;;;;;;;;;;;;;;;19.87;34.78;102555.81;4998197;28;19925;-68
2022/05/01 09:08:44;;;;;;;;;;;;;;;20.97;32.97;102554.09;4998119;28;19976;-69
2022/05/01 09:13:52;;;;;;;;;;;;;;;19.15;36.27;102555.44;4997508;28;20013;-69
2022/05/01 09:16:18;;;;;;;;;;;;;;;18.87;37.55;102552.66;4994924;28;20424;-68
2022/05/01 09:18:47;;;;;;;;;;;;;;;20.47;34.42;102548.69;4998704;28;19977;-68
2022/05/01 09:21:12;;;;;;;;;;;;;;;21.03;33.31;102547.63;5014658;28;20368;-66
2022/05/01 09:23:38;;;;;;;;;;;;;;;19.82;34.81;102542.91;4995374;28;19928;-67
2022/05/01 09:26:04;;;;;;;;;;;;;;;21.57;32.47;102545.81;4996001;28;20371;-68
2022/05/01 09:28:30;;;;;;;;;;;;;;;20.69;33.46;102535.94;4994640;28;20165;-67
2022/05/01 09:30:55;;;;;;;;;;;;;;;21.35;33.11;102540.38;4996785;28;19926;-69
2022/05/01 09:33:20;;;;;;;;;;;;;;;22.13;30.58;102544.50;4997816;28;19925;-68
2022/05/01 09:35:46;;;;;;;;;;;;;;;23.08;30.46;102547.09;4997081;28;19926;-68
2022/05/01 09:38:16;;;;;;;;;;;;;;;23.17;29.30;102546.34;4996389;28;19937;-69
2022/05/01 09:41:01;;;;;;;;;;;;;;;22.58;29.10;102536.69;5004361;28;19932;-68
2022/05/01 09:43:37;;;;;;;;;;;;;;;22.61;29.44;102539.72;4996944;28;19921;-68
2022/05/01 09:46:21;;;;;;;;;;;;;;;22.01;28.34;102539.22;4993492;28;19934;-67
2022/05/01 09:49:03;;;;;;;;;;;;;;;22.63;28.78;102543.00;4996617;28;19933;-66
2022/05/01 09:51:30;;;;;;;;;;;;;;;21.95;29.13;102536.66;4997272;28;20075;-69
2022/05/01 09:53:56;;;;;;;;;;;;;;;21.65;30.98;102532.53;4995907;28;19918;-69
2022/05/01 09:56:21;;;;;;;;;;;;;;;21.78;30.45;102529.38;4997070;28;19929;-69
2022/05/01 09:58:56;;;;;;;;;;;;;;;21.61;30.74;102525.91;4997393;28;20509;-69
2022/05/01 10:01:21;;;;;;;;;;;;;;;22.13;30.20;102526.16;4994822;28;19929;-67
2022/05/01 10:03:46;;;;;;;;;;;;;;;22.25;29.30;102521.31;4996847;28;19941;-69
2022/05/01 10:06:13;;;;;;;;;;;;;;;22.22;28.47;102523.75;4998184;28;19922;-68
2022/05/01 10:08:39;;;;;;;;;;;;;;;21.75;29.00;102521.69;4997423;28;19926;-69
2022/05/01 10:11:05;;;;;;;;;;;;;;;22.46;28.99;102525.03;4996650;28;19928;-70
2022/05/01 10:13:31;;;;;;;;;;;;;;;22.32;28.44;102515.63;4999963;28;19932;-68
2022/05/01 10:15:56;;;;;;;;;;;;;;;22.86;27.76;102517.09;4999600;28;19922;-68
2022/05/01 10:18:23;;;;;;;;;;;;;;;22.57;27.88;102519.41;5000532;28;20289;-68
2022/05/01 10:20:48;;;;;;;;;;;;;;;22.24;28.24;102508.72;4999517;28;19922;-70
2022/05/01 10:23:14;;;;;;;;;;;;;;;22.33;28.17;102503.56;4998678;28;19922;-69
2022/05/01 10:25:46;;;;;;;;;;;;;;;22.77;26.73;102506.91;4999755;28;19933;-68
2022/05/01 10:28:16;;;;;;;;;;;;;;;21.77;27.34;102505.84;4998482;28;19925;-70
2022/05/01 10:33:41;;;;;;;;;;;;;;;22.10;27.76;102504.78;4999159;28;20816;-70
2022/05/01 10:36:35;;;;;;;;;;;;;;;22.39;26.33;102500.59;4996231;28;19961;-69
2022/05/01 10:39:07;;;;;;;;;;;;;;;21.60;25.18;102507.03;4962973;28;19978;-68
2022/05/01 10:41:33;;;;;;;;;;;;;;;21.50;25.70;102504.97;4963949;28;19923;-69
2022/05/01 10:43:59;;;;;;;;;;;;;;;21.78;25.76;102507.47;4964606;28;19926;-70
2022/05/01 10:46:25;;;;;;;;;;;;;;;21.51;26.60;102500.34;4968891;28;19961;-67
2022/05/01 10:48:50;;;;;;;;;;;;;;;21.22;26.64;102496.19;4968007;28;19988;-68
2022/05/01 10:51:27;;;;;;;;;;;;;;;21.13;26.36;102498.53;4962019;28;19925;-68
2022/05/01 10:54:13;;;;;;;;;;;;;;;21.04;27.02;102499.25;4961005;28;19961;-68
2022/05/01 10:56:38;;;;;;;;;;;;;;;21.41;26.24;102495.59;4959442;28;19929;-67
2022/05/01 10:59:22;;;;;;;;;;;;;;;21.03;26.37;102490.19;4961466;28;19926;-68
2022/05/01 11:01:52;;;;;;;;;;;;;;;20.95;26.74;102490.66;4960977;28;19926;-68
2022/05/01 11:04:19;;;;;;;;;;;;;;;19.20;29.39;102495.56;4962314;28;19953;-67
2022/05/01 11:06:45;;;;;;;;;;;;;;;20.31;28.35;102491.34;4959535;28;19933;-67
2022/05/01 11:09:14;;;;;;;;;;;;;;;20.32;28.43;102493.00;4959809;28;19922;-68
2022/05/01 11:11:39;;;;;;;;;;;;;;;19.56;29.65;102488.13;4959041;28;19949;-67
2022/05/01 11:14:05;;;;;;;;;;;;;;;20.79;28.12;102489.63;4958428;28;19922;-69
2022/05/01 11:16:51;;;;;;;;;;;;;;;20.96;27.61;102476.72;4997011;28;20612;-69
2022/05/01 11:19:16;;;;;;;;;;;;;;;20.31;28.76;102492.19;4999271;28;19925;-68
2022/05/01 11:21:46;;;;;;;;;;;;;;;20.49;28.66;102485.63;4997794;28;19936;-68
2022/05/01 11:24:13;;;;;;;;;;;;;;;20.72;29.12;102485.41;5001230;28;20365;-69
2022/05/01 11:26:58;;;;;;;;;;;;;;;21.46;27.88;102481.97;4998717;28;19932;-68
2022/05/01 11:29:24;;;;;;;;;;;;;;;21.76;27.42;102484.16;5000839;28;19921;-67
2022/05/01 11:31:49;;;;;;;;;;;;;;;21.24;27.21;102480.34;4996416;28;20289;-69
2022/05/01 11:34:24;;;;;;;;;;;;;;;20.52;27.96;102468.75;4997281;28;20224;-68
2022/05/01 11:37:01;;;;;;;;;;;;;;;21.26;27.17;102470.81;4997033;28;19921;-68
2022/05/01 11:39:45;;;;;;;;;;;;;;;21.42;26.74;102477.28;4996121;28;19972;-69
2022/05/01 11:42:26;;;;;;;;;;;;;;;21.34;26.96;102473.09;5001540;28;19949;-69
2022/05/01 11:44:55;;;;;;;;;;;;;;;21.40;27.36;102465.78;4999537;28;19961;-70
2022/05/01 11:47:23;;;;;;;;;;;;;;;21.69;27.10;102473.47;4997008;28;19940;-69
2022/05/01 11:49:50;;;;;;;;;;;;;;;22.33;27.07;102466.03;4995688;28;19926;-69
2022/05/01 11:52:16;;;;;;;;;;;;;;;22.32;26.75;102464.41;4989861;28;19992;-68
2022/05/01 11:54:51;;;;;;;;;;;;;;;22.59;26.71;102461.59;4989537;28;19956;-68
2022/05/01 12:02:47;;;;;;;;;;;;;;;23.93;25.44;102454.03;4995094;28;20325;-69
2022/05/01 12:05:12;;;;;;;;;;;;;;;23.70;24.22;102456.47;4995766;28;19921;-68
2022/05/01 12:07:37;;;;;;;;;;;;;;;23.55;26.00;102454.53;4994795;28;20442;-70
2022/05/01 12:10:03;;;;;;;;;;;;;;;24.14;23.74;102444.69;4995001;28;19975;-70
2022/05/01 12:12:29;;;;;;;;;;;;;;;23.53;24.72;102438.34;4995005;28;20768;-70
2022/05/01 12:14:54;;;;;;;;;;;;;;;24.15;23.47;102432.59;4995471;28;19965;-68
2022/05/01 12:17:21;;;;;;;;;;;;;;;24.23;24.18;102426.56;4996222;28;19960;-68
2022/05/01 12:19:47;;;;;;;;;;;;;;;23.71;23.52;102423.25;4997408;28;19951;-71
2022/05/01 12:22:17;;;;;;;;;;;;;;;23.55;24.25;102424.34;4994726;28;19933;-70
2022/05/01 12:24:46;;;;;;;;;;;;;;;24.04;23.14;102417.22;4995996;28;20060;-68
2022/05/01 12:27:12;;;;;;;;;;;;;;;23.82;23.09;102415.84;4997036;28;19972;-69
2022/05/01 12:29:40;;;;;;;;;;;;;;;24.78;23.03;102413.75;4994425;28;19991;-69
2022/05/01 12:32:09;;;;;;;;;;;;;;;25.44;22.75;102415.03;4993962;28;19922;-69
2022/05/01 12:34:55;;;;;;;;;;;;;;;24.52;21.95;102414.91;4990719;28;19926;-70
2022/05/01 12:37:29;;;;;;;;;;;;;;;23.62;22.78;102413.94;4995564;28;19943;-72
2022/05/01 12:39:59;;;;;;;;;;;;;;;23.12;24.19;102414.66;4997239;28;19973;-70
2022/05/01 12:45:10;;;;;;;;;;;;;;;24.27;23.12;102411.13;5002458;28;20019;-69
2022/05/01 12:47:55;;;;;;;;;;;;;;;22.64;24.82;102401.34;5002061;28;19957;-69
2022/05/01 12:50:21;;;;;;;;;;;;;;;21.91;25.29;102402.25;4993607;28;19930;-69
2022/05/01 12:52:47;;;;;;;;;;;;;;;21.79;25.41;102407.88;4997513;28;20266;-69
2022/05/01 12:55:20;;;;;;;;;;;;;;;23.17;24.42;102409.19;4998119;28;19925;-70
2022/05/01 12:57:52;;;;;;;;;;;;;;;23.17;24.39;102402.88;5006759;28;19975;-67
2022/05/01 13:00:36;;;;;;;;;;;;;;;23.22;23.33;102411.94;5006784;28;19936;-69
2022/05/01 13:03:19;;;;;;;;;;;;;;;22.69;25.09;102407.66;4991186;28;19926;-68
2022/05/01 13:05:54;;;;;;;;;;;;;;;22.87;25.09;102411.81;5000109;28;19961;-68